createdAt,value
2022-12-26T00:01:40.286Z,44.00
2022-12-26T00:04:50.930Z,46.90
2022-12-26T00:06:57.263Z,43.80
2022-12-26T00:09:25.445Z,39.70
2022-12-26T00:11:53.821Z,50.70
2022-12-26T00:14:21.905Z,39.40
2022-12-26T00:16:50.171Z,34.80
2022-12-26T00:19:18.512Z,33.60
2022-12-26T00:21:46.760Z,45.70
2022-12-26T00:24:15.144Z,40.80
2022-12-26T00:26:43.165Z,41.80
2022-12-26T00:29:11.171Z,47.60
2022-12-26T00:31:39.422Z,37.50
2022-12-26T00:34:07.614Z,47.30
2022-12-26T00:36:35.903Z,50.20
2022-12-26T00:39:04.572Z,48.50
2022-12-26T00:41:33.709Z,44.40
2022-12-26T00:44:01.839Z,47.10
2022-12-26T00:46:30.174Z,43.10
2022-12-26T00:48:58.486Z,46.20
2022-12-26T00:51:26.825Z,37.20
2022-12-26T00:53:54.888Z,46.60
2022-12-26T00:56:22.906Z,37.80
2022-12-26T00:58:52.720Z,40.00
2022-12-26T01:01:23.603Z,42.50
2022-12-26T01:03:52.575Z,29.50
2022-12-26T01:06:20.626Z,38.40
2022-12-26T01:08:49.118Z,42.60
2022-12-26T01:11:40.514Z,36.70
2022-12-26T01:14:15.078Z,48.30
2022-12-26T01:16:45.462Z,42.60
2022-12-26T01:19:14.327Z,42.80
2022-12-26T01:21:43.315Z,35.80
2022-12-26T01:24:11.962Z,35.80
2022-12-26T01:26:39.954Z,36.50
2022-12-26T01:29:09.020Z,43.00
2022-12-26T01:31:37.296Z,40.20
2022-12-26T01:34:05.428Z,31.30
2022-12-26T01:36:33.509Z,34.20
2022-12-26T01:39:01.558Z,37.90
2022-12-26T01:41:30.563Z,43.70
2022-12-26T01:44:04.677Z,38.80
2022-12-26T01:46:39.214Z,37.90
2022-12-26T01:49:21.790Z,41.50
2022-12-26T01:51:56.907Z,62.00
2022-12-26T01:54:39.277Z,43.60
2022-12-26T01:57:16.219Z,38.20
2022-12-26T01:59:46.519Z,28.40
2022-12-26T02:02:17.015Z,39.10
2022-12-26T02:05:07.912Z,43.50
2022-12-26T02:07:39.605Z,41.70
2022-12-26T02:10:13.423Z,42.00
2022-12-26T02:12:41.665Z,41.60
2022-12-26T02:15:16.994Z,45.50
2022-12-26T02:17:48.056Z,44.70
2022-12-26T02:20:24.024Z,43.50
2022-12-26T02:23:40.679Z,42.10
2022-12-26T02:26:53.503Z,38.80
2022-12-26T02:29:45.707Z,47.60
2022-12-26T02:32:38.911Z,45.90
2022-12-26T02:35:25.295Z,44.80
2022-12-26T02:38:27.931Z,51.50
2022-12-26T02:41:02.041Z,48.00
2022-12-26T02:43:58.221Z,45.60
2022-12-26T02:49:26.343Z,36.00
2022-12-26T02:52:16.301Z,33.70
2022-12-26T02:55:19.439Z,33.80
2022-12-26T02:58:17.507Z,30.30
2022-12-26T03:01:07.557Z,29.30
2022-12-26T03:03:57.985Z,29.50
2022-12-26T03:06:48.669Z,33.00
2022-12-26T03:09:41.283Z,33.90
2022-12-26T03:13:02.679Z,32.00
2022-12-26T03:15:54.507Z,27.40
2022-12-26T03:18:57.141Z,33.10
2022-12-26T03:21:17.044Z,31.90
2022-12-26T03:23:47.718Z,31.90
2022-12-26T03:26:39.452Z,32.10
2022-12-26T03:29:35.796Z,33.60
2022-12-26T03:34:37.663Z,32.30
2022-12-26T03:37:47.646Z,32.10
2022-12-26T03:40:56.793Z,28.70
2022-12-26T03:44:05.330Z,23.80
2022-12-26T03:46:55.151Z,27.90
2022-12-26T03:49:47.533Z,22.70
2022-12-26T03:52:45.367Z,26.80
2022-12-26T03:55:59.325Z,30.30
2022-12-26T03:58:54.996Z,30.00
2022-12-26T04:01:46.344Z,29.60
2022-12-26T04:04:35.597Z,26.70
2022-12-26T04:07:28.956Z,28.70
2022-12-26T04:10:35.870Z,25.60
2022-12-26T04:13:30.046Z,22.80
2022-12-26T04:16:40.316Z,24.80
2022-12-26T04:19:27.619Z,22.30
2022-12-26T04:22:20.298Z,23.10
2022-12-26T04:25:19.358Z,23.70
2022-12-26T04:28:06.617Z,23.20
2022-12-26T04:30:57.732Z,24.00
2022-12-26T04:33:52.984Z,21.70
2022-12-26T04:36:47.807Z,23.10
2022-12-26T04:39:39.932Z,23.60
2022-12-26T04:42:27.591Z,22.70
2022-12-26T04:44:57.691Z,23.90
2022-12-26T04:47:25.964Z,30.70
2022-12-26T04:50:12.383Z,20.90
2022-12-26T04:53:00.860Z,27.50
2022-12-26T04:55:32.322Z,24.60
2022-12-26T04:58:00.439Z,21.20
2022-12-26T05:00:29.390Z,26.60
2022-12-26T05:03:26.643Z,25.60
2022-12-26T05:06:13.707Z,27.00
2022-12-26T05:09:02.795Z,28.90
2022-12-26T05:11:32.845Z,31.40
2022-12-26T05:14:01.602Z,25.00
2022-12-26T05:16:48.185Z,22.50
2022-12-26T05:19:36.895Z,21.10
2022-12-26T05:22:24.306Z,21.80
2022-12-26T05:25:11.469Z,22.60
2022-12-26T05:28:02.670Z,28.90
2022-12-26T05:30:31.105Z,24.60
2022-12-26T05:33:17.966Z,25.80
2022-12-26T05:35:46.047Z,27.80
2022-12-26T05:38:15.037Z,24.60
2022-12-26T05:40:43.128Z,30.30
2022-12-26T05:43:11.198Z,29.80
2022-12-26T05:45:39.264Z,26.40
2022-12-26T05:48:07.304Z,23.20
2022-12-26T05:50:35.479Z,25.50
2022-12-26T05:53:04.353Z,25.00
2022-12-26T05:55:32.535Z,20.80
2022-12-26T05:58:01.305Z,22.70
2022-12-26T06:00:30.436Z,21.80
2022-12-26T06:03:02.463Z,18.80
2022-12-26T06:05:30.738Z,20.00
2022-12-26T06:07:58.970Z,21.40
2022-12-26T06:10:29.770Z,16.10
2022-12-26T06:13:00.244Z,16.50
2022-12-26T06:15:28.336Z,18.40
2022-12-26T06:17:56.863Z,17.80
2022-12-26T06:20:24.871Z,16.80
2022-12-26T06:22:52.904Z,15.10
2022-12-26T06:25:21.063Z,10.50
2022-12-26T06:27:49.175Z,20.50
2022-12-26T06:30:17.217Z,20.00
2022-12-26T06:32:45.367Z,19.20
2022-12-26T06:35:13.454Z,18.80
2022-12-26T06:37:41.678Z,20.30
2022-12-26T06:40:10.609Z,20.80
2022-12-26T06:42:39.334Z,19.70
2022-12-26T06:45:07.795Z,16.70
2022-12-26T06:47:35.774Z,17.50
2022-12-26T06:50:05.791Z,18.70
2022-12-26T06:52:34.316Z,18.40
2022-12-26T06:55:02.410Z,19.70
2022-12-26T06:57:30.785Z,20.50
2022-12-26T06:59:58.830Z,18.90
2022-12-26T07:02:26.971Z,18.50
2022-12-26T07:04:55.015Z,22.40
2022-12-26T07:07:22.999Z,19.20
2022-12-26T07:09:51.165Z,19.90
2022-12-26T07:12:21.921Z,19.70
2022-12-26T07:14:49.961Z,17.00
2022-12-26T07:17:18.081Z,18.90
2022-12-26T07:19:46.114Z,17.40
2022-12-26T07:22:14.257Z,20.00
2022-12-26T07:24:42.224Z,17.50
2022-12-26T07:27:10.320Z,17.80
2022-12-26T07:29:44.181Z,19.20
2022-12-26T07:32:14.042Z,18.30
2022-12-26T07:34:42.885Z,17.80
2022-12-26T07:37:11.019Z,20.20
2022-12-26T07:39:39.092Z,20.00
2022-12-26T07:42:07.256Z,22.20
2022-12-26T07:44:35.460Z,22.20
2022-12-26T07:47:04.024Z,24.60
2022-12-26T07:49:32.788Z,21.00
2022-12-26T07:52:02.016Z,21.60
2022-12-26T07:54:32.547Z,20.40
2022-12-26T07:57:29.858Z,18.50
2022-12-26T07:59:53.071Z,20.50
2022-12-26T08:02:23.976Z,19.70
2022-12-26T08:04:52.528Z,21.20
2022-12-26T08:07:20.568Z,21.00
2022-12-26T08:09:48.764Z,19.50
2022-12-26T08:12:16.830Z,17.90
2022-12-26T08:14:44.855Z,18.20
2022-12-26T08:17:13.410Z,17.90
2022-12-26T08:19:41.448Z,20.50
2022-12-26T08:22:09.493Z,19.50
2022-12-26T08:24:37.593Z,20.60
2022-12-26T08:27:05.794Z,18.20
2022-12-26T08:29:33.907Z,21.60
2022-12-26T08:32:02.212Z,14.90
2022-12-26T08:34:35.186Z,16.80
2022-12-26T08:37:03.425Z,19.10
2022-12-26T08:39:31.606Z,19.60
2022-12-26T08:41:59.717Z,16.80
2022-12-26T08:44:28.693Z,20.40
2022-12-26T08:46:57.549Z,15.50
2022-12-26T08:49:25.760Z,17.90
2022-12-26T08:51:53.861Z,17.10
2022-12-26T08:54:23.052Z,16.20
2022-12-26T08:56:51.204Z,17.00
2022-12-26T08:59:20.058Z,15.10
2022-12-26T09:01:48.622Z,14.00
2022-12-26T09:04:16.906Z,19.20
2022-12-26T09:06:44.980Z,15.00
2022-12-26T09:09:13.640Z,15.90
2022-12-26T09:11:42.580Z,16.60
2022-12-26T09:14:11.629Z,14.70
2022-12-26T09:16:50.498Z,15.80
2022-12-26T09:19:21.529Z,15.60
2022-12-26T09:22:10.647Z,13.80
2022-12-26T09:24:39.039Z,19.30
2022-12-26T09:27:07.375Z,15.90
2022-12-26T09:29:35.710Z,16.50
2022-12-26T09:32:04.802Z,12.70
2022-12-26T09:34:32.839Z,13.80
2022-12-26T09:37:01.020Z,11.90
2022-12-26T09:39:29.219Z,15.40
2022-12-26T09:42:24.835Z,16.80
2022-12-26T09:45:23.864Z,15.70
2022-12-26T09:48:14.238Z,13.90
2022-12-26T09:50:43.525Z,14.90
2022-12-26T09:53:18.426Z,6.60
2022-12-26T09:56:23.772Z,13.00
2022-12-26T09:59:08.244Z,7.20
2022-12-26T10:01:37.471Z,9.70
2022-12-26T10:04:28.221Z,6.90
2022-12-26T10:07:20.915Z,14.70
2022-12-26T10:09:51.991Z,9.20
2022-12-26T10:12:38.819Z,13.30
2022-12-26T10:15:28.194Z,14.20
2022-12-26T10:18:06.968Z,12.90
2022-12-26T10:21:00.371Z,15.10
2022-12-26T10:23:34.419Z,14.40
2022-12-26T10:26:09.659Z,16.90
2022-12-26T10:28:50.143Z,14.60
2022-12-26T10:31:52.618Z,18.00
2022-12-26T10:34:40.195Z,14.60
2022-12-26T10:37:25.192Z,17.70
2022-12-26T10:40:02.180Z,15.10
2022-12-26T10:42:37.713Z,19.30
2022-12-26T10:45:40.668Z,16.00
2022-12-26T10:48:14.130Z,17.90
2022-12-26T10:50:49.308Z,16.30
2022-12-26T10:53:17.799Z,17.30
2022-12-26T10:55:45.983Z,7.80
2022-12-26T10:58:30.308Z,14.90
2022-12-26T11:01:37.925Z,13.00
2022-12-26T11:07:18.072Z,18.50
2022-12-26T11:09:46.361Z,20.50
2022-12-26T11:12:30.741Z,17.70
2022-12-26T11:15:02.650Z,15.70
2022-12-26T11:17:34.605Z,16.10
2022-12-26T11:20:10.297Z,17.60
2022-12-26T11:22:38.563Z,13.70
2022-12-26T11:25:09.836Z,18.60
2022-12-26T11:27:59.665Z,14.80
2022-12-26T11:30:32.045Z,13.80
2022-12-26T11:33:27.955Z,12.40
2022-12-26T11:36:05.983Z,15.50
2022-12-26T11:38:45.484Z,18.90
2022-12-26T11:41:37.018Z,13.10
2022-12-26T11:44:17.861Z,17.40
2022-12-26T11:47:10.511Z,19.20
2022-12-26T11:49:46.471Z,16.20
2022-12-26T11:52:37.665Z,19.90
2022-12-26T11:55:29.262Z,16.60
2022-12-26T11:58:25.404Z,16.80
2022-12-26T12:00:55.266Z,14.70
2022-12-26T12:03:49.887Z,15.10
2022-12-26T12:06:44.201Z,14.60
2022-12-26T12:09:35.279Z,20.10
2022-12-26T12:12:24.209Z,15.10
2022-12-26T12:15:09.940Z,17.70
2022-12-26T12:18:01.230Z,17.00
2022-12-26T12:20:57.201Z,16.70
2022-12-26T12:23:31.894Z,20.10
2022-12-26T12:26:10.428Z,22.00
2022-12-26T12:28:56.931Z,16.40
2022-12-26T12:31:30.882Z,17.90
2022-12-26T12:34:31.625Z,22.60
2022-12-26T12:37:18.312Z,14.10
2022-12-26T12:40:01.463Z,19.40
2022-12-26T12:42:53.597Z,16.50
2022-12-26T12:45:27.394Z,17.80
2022-12-26T12:48:04.872Z,17.20
2022-12-26T12:50:44.802Z,16.00
2022-12-26T12:53:19.245Z,17.20
2022-12-26T12:56:16.358Z,18.00
2022-12-26T12:59:03.095Z,19.50
2022-12-26T13:01:38.656Z,18.10
2022-12-26T13:07:00.343Z,17.20
2022-12-26T13:10:00.933Z,17.50
2022-12-26T13:12:40.313Z,18.10
2022-12-26T13:15:36.026Z,17.00
2022-12-26T13:18:08.498Z,16.20
2022-12-26T13:20:40.046Z,16.10
2022-12-26T13:23:51.609Z,17.60
2022-12-26T13:26:28.806Z,20.40
2022-12-26T13:29:15.955Z,17.40
2022-12-26T13:31:45.841Z,18.00
2022-12-26T13:34:19.833Z,15.70
2022-12-26T13:36:51.280Z,15.80
2022-12-26T13:39:30.737Z,16.10
2022-12-26T13:42:23.926Z,16.50
2022-12-26T13:44:53.817Z,12.10
2022-12-26T13:47:39.177Z,20.30
2022-12-26T13:50:48.508Z,20.80
2022-12-26T13:53:24.805Z,18.90
2022-12-26T13:56:04.581Z,26.20
2022-12-26T13:58:35.787Z,20.40
2022-12-26T14:01:31.948Z,17.80
2022-12-26T14:04:18.797Z,19.00
2022-12-26T14:07:24.890Z,18.40
2022-12-26T14:10:03.920Z,18.20
2022-12-26T14:12:53.770Z,17.50
2022-12-26T14:15:53.038Z,19.20
2022-12-26T14:18:47.456Z,23.40
2022-12-26T14:21:15.774Z,16.70
2022-12-26T14:23:56.338Z,20.80
2022-12-26T14:27:02.144Z,17.30
2022-12-26T14:30:12.265Z,20.70
2022-12-26T14:33:12.945Z,22.90
2022-12-26T14:36:01.635Z,23.40
2022-12-26T14:38:35.249Z,18.20
2022-12-26T14:41:07.447Z,22.90
2022-12-26T14:43:41.332Z,20.40
2022-12-26T14:46:32.208Z,20.70
2022-12-26T14:49:36.354Z,26.00
2022-12-26T14:52:23.477Z,25.10
2022-12-26T14:54:56.097Z,27.60
2022-12-26T14:57:46.021Z,23.50
2022-12-26T15:00:23.419Z,24.60
2022-12-26T15:03:03.553Z,21.60
2022-12-26T15:05:37.667Z,32.50
2022-12-26T15:08:27.632Z,18.40
2022-12-26T15:11:31.579Z,23.90
2022-12-26T15:14:09.434Z,21.00
2022-12-26T15:17:00.242Z,19.20
2022-12-26T15:19:43.990Z,19.80
2022-12-26T15:22:24.729Z,31.90
2022-12-26T15:28:15.830Z,25.20
2022-12-26T15:31:14.793Z,23.80
2022-12-26T15:34:03.320Z,28.80
2022-12-26T15:36:58.232Z,29.80
2022-12-26T15:39:45.469Z,28.20
2022-12-26T15:42:32.067Z,24.70
2022-12-26T15:45:27.728Z,27.30
2022-12-26T15:48:06.958Z,28.00
2022-12-26T15:50:50.419Z,28.90
2022-12-26T15:53:43.501Z,25.60
2022-12-26T15:56:12.276Z,25.30
2022-12-26T15:59:09.921Z,26.10
2022-12-26T16:01:41.542Z,28.80
2022-12-26T16:04:33.590Z,35.40
2022-12-26T16:07:09.227Z,35.20
2022-12-26T16:09:45.229Z,28.70
2022-12-26T16:12:27.673Z,30.50
2022-12-26T16:15:11.578Z,31.10
2022-12-26T16:17:41.876Z,30.10
2022-12-26T16:20:43.904Z,34.30
2022-12-26T16:23:17.026Z,31.70
2022-12-26T16:25:50.797Z,32.20
2022-12-26T16:28:25.516Z,31.60
2022-12-26T16:30:53.861Z,29.50
2022-12-26T16:33:22.135Z,24.80
2022-12-26T16:35:53.867Z,25.10
2022-12-26T16:38:30.214Z,23.90
2022-12-26T16:41:00.690Z,27.20
2022-12-26T16:43:34.704Z,27.70
2022-12-26T16:46:06.313Z,29.20
2022-12-26T16:48:36.883Z,33.80
